Thunder radar more information blitzortung!


Radar de pluja more information rain snow radar


Visita la nostra xarxa de llocs de meteo:

Template documentation
and downloads

And another site



Wind From: 11-12-2017 11:00 Until: 14:59 warning for: Wind Level: Yellow info button

Pagina Historial Weather Underground text

Diari Resum Juny 23, 2016 Unitats:  Mètric    Imperial   Tant
« Previous Dia
SegĂźent Dia »
Diari Setmana Mensual Anual Personalitzada
  Maxima: Minima: Media:
Temperatura: 31.5 °C 15.6 °C 26.5 °C
Punt de rosada: 9.8 °C 3.1 °C 7.3 °C
Humitat: 51 % 23 % 31 %
Wind Speed: 33.3 km/h 0.0 km/h 10.9 km/h
RĂ fegues de vent: 33.3 km/h - -
Vent:- - SSW
Pression baro: 1020.9 hPa 1016.8 hPa -
Precipitacions: 0.0 mm    
Historical Graphs
 
 
Dades de taula per Juny 23, 2016
Temps Temperatura Punt de rosada Pression baro Vent Wind Speed RĂ fegues de vent Humitat Rainfall Rate (Hourly)
00:00 21.4 °C 3.1 °C 1019.9 hPa West 5.6 km/h 5.6 km/h 30 % 0.0 mm
00:05 21.4 °C 3.1 °C 1019.9 hPa WSW 3.7 km/h 3.7 km/h 30 % 0.0 mm
00:15 16.8 °C 6.3 °C 1019.9 hPa Calm     50 % 0.0 mm
00:25 16.4 °C 5.9 °C 1019.9 hPa ESE 1.6 km/h 3.2 km/h 50 % 0.0 mm
00:35 16.0 °C 5.8 °C 1019.9 hPa SW 1.6 km/h 3.2 km/h 51 % 0.0 mm
00:45 15.9 °C 5.8 °C 1019.9 hPa SW 1.6 km/h 1.6 km/h 51 % 0.0 mm
00:55 15.9 °C 5.8 °C 1019.9 hPa SW 1.6 km/h 3.2 km/h 51 % 0.0 mm
01:05 15.8 °C 5.7 °C 1019.9 hPa Calm     51 % 0.0 mm
01:15 15.8 °C 5.7 °C 1019.9 hPa SW 1.6 km/h   51 % 0.0 mm
01:25 15.8 °C 5.7 °C 1019.9 hPa SW 1.6 km/h 1.6 km/h 51 % 0.0 mm
01:35 15.6 °C 5.5 °C 1018.8 hPa Calm     51 % 0.0 mm
01:45 15.7 °C 5.6 °C 1019.9 hPa Calm   1.6 km/h 51 % 0.0 mm
01:55 16.1 °C 5.9 °C 1019.9 hPa Calm   1.6 km/h 51 % 0.0 mm
02:05 16.6 °C 6.4 °C 1019.9 hPa NE 1.6 km/h 3.2 km/h 51 % 0.0 mm
02:15 17.0 °C 6.5 °C 1019.9 hPa NE 3.2 km/h 3.2 km/h 50 % 0.0 mm
02:25 17.6 °C 7.1 °C 1019.9 hPa NNE 1.6 km/h 3.2 km/h 50 % 0.0 mm
02:35 18.2 °C 7.3 °C 1019.9 hPa NE 1.6 km/h 3.2 km/h 49 % 0.0 mm
02:45 18.8 °C 7.8 °C 1019.9 hPa NE 1.6 km/h 3.2 km/h 49 % 0.0 mm
02:55 19.1 °C 7.5 °C 1019.9 hPa NE 3.2 km/h 3.2 km/h 47 % 0.0 mm
03:05 18.9 °C 7.9 °C 1019.9 hPa NE 1.6 km/h 3.2 km/h 49 % 0.0 mm
03:15 18.8 °C 7.8 °C 1019.9 hPa SW 1.6 km/h 3.2 km/h 49 % 0.0 mm
03:25 19.3 °C 7.7 °C 1019.9 hPa SW 3.2 km/h 3.2 km/h 47 % 0.0 mm
03:35 20.1 °C 8.1 °C 1019.9 hPa SW 1.6 km/h 3.2 km/h 46 % 0.0 mm
03:45 20.8 °C 8.8 °C 1019.9 hPa SSW 1.6 km/h 1.6 km/h 46 % 0.0 mm
04:05 22.0 °C 9.2 °C 1019.9 hPa SE 1.6 km/h 3.2 km/h 44 % 0.0 mm
04:15 22.0 °C 8.8 °C 1019.9 hPa SSW 1.6 km/h 4.8 km/h 43 % 0.0 mm
04:25 22.8 °C 9.2 °C 1019.9 hPa SSW 1.6 km/h 3.2 km/h 42 % 0.0 mm
04:35 23.8 °C 9.4 °C 1019.9 hPa South 3.2 km/h 3.2 km/h 40 % 0.0 mm
04:45 24.7 °C 9.8 °C 1018.8 hPa Calm   6.4 km/h 39 % 0.0 mm
04:55 25.2 °C 9.4 °C 1018.8 hPa ESE 1.6 km/h 4.8 km/h 37 % 0.0 mm
05:05 25.4 °C 8.8 °C 1019.9 hPa SSE 4.8 km/h 6.4 km/h 35 % 0.0 mm
05:15 25.9 °C 8.4 °C 1019.9 hPa SW 1.6 km/h 8.0 km/h 33 % 0.0 mm
05:25 25.8 °C 7.4 °C 1019.9 hPa SW 9.7 km/h 9.7 km/h 31 % 0.0 mm
05:45 27.1 °C 9.0 °C 1020.9 hPa SW 4.8 km/h 9.7 km/h 32 % 0.0 mm
05:55 27.1 °C 9.0 °C 1020.9 hPa SW 4.8 km/h 16.1 km/h 32 % 0.0 mm
06:05 27.3 °C 9.2 °C 1019.9 hPa SW 9.7 km/h 16.1 km/h 32 % 0.0 mm
06:15 27.5 °C 9.3 °C 1019.9 hPa SW 9.7 km/h 16.1 km/h 32 % 0.0 mm
11:24 27.7 °C 9.1 °C 1019.9 hPa SW 13.0 km/h 13.0 km/h 31 % 0.0 mm
11:29 28.0 °C 8.8 °C 1019.9 hPa SW 14.8 km/h 14.8 km/h 30 % 0.0 mm
11:34 28.3 °C 9.1 °C 1019.9 hPa SSW 9.3 km/h 9.5 km/h 30 % 0.0 mm
11:39 28.4 °C 9.2 °C 1019.9 hPa SW 20.1 km/h 20.1 km/h 30 % 0.0 mm
11:44 28.5 °C 9.2 °C 1019.9 hPa SSW 13.0 km/h 13.0 km/h 30 % 0.0 mm
11:49 28.6 °C 8.8 °C 1019.9 hPa WSW 20.6 km/h 20.6 km/h 29 % 0.0 mm
11:54 28.6 °C 8.8 °C 1019.9 hPa South 20.4 km/h 20.4 km/h 29 % 0.0 mm
11:59 28.9 °C 9.6 °C 1019.9 hPa SSW 14.8 km/h 14.8 km/h 30 % 0.0 mm
12:09 29.0 °C 9.2 °C 1019.9 hPa SW 13.7 km/h 13.7 km/h 29 % 0.0 mm
12:14 29.3 °C 9.4 °C 1019.9 hPa SW 9.5 km/h 9.5 km/h 29 % 0.0 mm
12:19 29.6 °C 9.7 °C 1019.9 hPa SSW 9.3 km/h 9.3 km/h 29 % 0.0 mm
12:24 29.7 °C 9.8 °C 1019.9 hPa SW 3.7 km/h 5.3 km/h 29 % 0.0 mm
12:29 29.3 °C 8.9 °C 1019.9 hPa South 13.0 km/h 13.0 km/h 28 % 0.0 mm
12:34 29.9 °C 9.4 °C 1019.9 hPa South 9.3 km/h 9.3 km/h 28 % 0.0 mm
12:39 29.8 °C 9.3 °C 1019.9 hPa SSW 14.8 km/h 14.8 km/h 28 % 0.0 mm
12:44 29.6 °C 9.2 °C 1018.8 hPa WSW 9.3 km/h 9.3 km/h 28 % 0.0 mm
12:49 29.9 °C 9.4 °C 1018.8 hPa SSW 13.0 km/h 13.0 km/h 28 % 0.0 mm
12:54 29.5 °C 9.1 °C 1018.8 hPa South 24.1 km/h 24.1 km/h 28 % 0.0 mm
12:59 29.9 °C 9.4 °C 1018.8 hPa WNW 17.5 km/h 17.5 km/h 28 % 0.0 mm
13:04 29.7 °C 9.2 °C 1018.8 hPa SSW 14.8 km/h 14.8 km/h 28 % 0.0 mm
13:09 29.8 °C 9.3 °C 1018.8 hPa SW 22.2 km/h 22.2 km/h 28 % 0.0 mm
13:14 30.2 °C 9.7 °C 1018.8 hPa SW 16.9 km/h 16.9 km/h 28 % 0.0 mm
13:19 30.0 °C 9.5 °C 1018.8 hPa SSW 33.3 km/h 33.3 km/h 28 % 0.0 mm
13:24 30.1 °C 9.6 °C 1018.8 hPa WSW 14.8 km/h 14.8 km/h 28 % 0.0 mm
13:29 30.3 °C 9.8 °C 1018.8 hPa SW 18.5 km/h 18.5 km/h 28 % 0.0 mm
13:34 30.2 °C 9.1 °C 1018.8 hPa SW 13.0 km/h 13.0 km/h 27 % 0.0 mm
13:39 30.3 °C 9.2 °C 1018.8 hPa SW 16.7 km/h 16.7 km/h 27 % 0.0 mm
13:44 30.4 °C 9.3 °C 1018.8 hPa SW 9.3 km/h 9.3 km/h 27 % 0.0 mm
13:49 30.4 °C 9.3 °C 1018.8 hPa WSW 22.2 km/h 22.2 km/h 27 % 0.0 mm
13:54 30.2 °C 9.1 °C 1018.8 hPa SW 25.9 km/h 25.9 km/h 27 % 0.0 mm
13:59 30.5 °C 9.4 °C 1017.8 hPa WSW 13.0 km/h 13.0 km/h 27 % 0.0 mm
14:04 30.8 °C 9.6 °C 1017.8 hPa WSW 14.8 km/h 14.8 km/h 27 % 0.0 mm
14:09 30.5 °C 8.8 °C 1017.8 hPa SW 20.4 km/h 20.4 km/h 26 % 0.0 mm
14:14 30.8 °C 9.1 °C 1017.8 hPa WSW 13.0 km/h 13.0 km/h 26 % 0.0 mm
14:19 31.0 °C 9.2 °C 1017.8 hPa SW 18.5 km/h 18.5 km/h 26 % 0.0 mm
14:24 30.6 °C 8.3 °C 1017.8 hPa SW 20.9 km/h 20.9 km/h 25 % 0.0 mm
14:29 30.6 °C 8.3 °C 1018.8 hPa SSW 24.1 km/h 24.1 km/h 25 % 0.0 mm
14:34 30.8 °C 9.1 °C 1018.8 hPa SW 18.0 km/h 18.0 km/h 26 % 0.0 mm
14:39 30.8 °C 8.5 °C 1018.8 hPa SW 16.7 km/h 16.7 km/h 25 % 0.0 mm
14:44 31.0 °C 8.7 °C 1017.8 hPa South 18.5 km/h 18.5 km/h 25 % 0.0 mm
14:49 31.2 °C 8.8 °C 1017.8 hPa SW 10.0 km/h 10.0 km/h 25 % 0.0 mm
14:54 31.3 °C 8.9 °C 1017.8 hPa WSW 20.4 km/h 20.4 km/h 25 % 0.0 mm
14:59 31.5 °C 9.1 °C 1017.8 hPa West 17.5 km/h 17.5 km/h 25 % 0.0 mm
15:04 31.3 °C 8.3 °C 1017.8 hPa SW 13.0 km/h 13.0 km/h 24 % 0.0 mm
15:09 31.4 °C 8.4 °C 1017.8 hPa SW 14.8 km/h 14.8 km/h 24 % 0.0 mm
15:14 31.2 °C 8.2 °C 1017.8 hPa SW 25.9 km/h 25.9 km/h 24 % 0.0 mm
15:19 31.4 °C 8.4 °C 1017.8 hPa SW 20.6 km/h 20.6 km/h 24 % 0.0 mm
15:24 31.5 °C 8.5 °C 1017.8 hPa South 11.1 km/h 11.1 km/h 24 % 0.0 mm
15:29 31.4 °C 8.4 °C 1017.8 hPa SSW 19.5 km/h 19.5 km/h 24 % 0.0 mm
15:34 31.3 °C 8.3 °C 1017.8 hPa SW 16.7 km/h 16.7 km/h 24 % 0.0 mm
15:44 31.4 °C 7.8 °C 1017.8 hPa WSW 14.8 km/h 14.8 km/h 23 % 0.0 mm
15:54 31.1 °C 7.5 °C 1017.8 hPa SW 27.8 km/h 27.8 km/h 23 % 0.0 mm
15:59 31.0 °C 7.4 °C 1017.8 hPa SW 20.4 km/h 20.4 km/h 23 % 0.0 mm
16:04 31.1 °C 7.5 °C 1017.8 hPa SSW 22.2 km/h 22.2 km/h 23 % 0.0 mm
16:09 31.5 °C 7.8 °C 1017.8 hPa WSW 14.8 km/h 14.8 km/h 23 % 0.0 mm
16:14 31.3 °C 7.7 °C 1017.8 hPa SW 16.7 km/h 16.7 km/h 23 % 0.0 mm
16:19 30.9 °C 7.3 °C 1017.8 hPa SW 22.2 km/h 22.2 km/h 23 % 0.0 mm
16:24 31.2 °C 8.2 °C 1017.8 hPa ESE 10.8 km/h 10.8 km/h 24 % 0.0 mm
16:29 30.9 °C 7.3 °C 1018.8 hPa WSW 14.8 km/h 14.8 km/h 23 % 0.0 mm
16:34 31.2 °C 8.2 °C 1018.8 hPa WSW 13.0 km/h 13.0 km/h 24 % 0.0 mm
16:39 31.0 °C 7.4 °C 1018.8 hPa SSW 20.4 km/h 20.4 km/h 23 % 0.0 mm
16:44 30.8 °C 7.3 °C 1017.8 hPa SW 22.2 km/h 22.2 km/h 23 % 0.0 mm
16:49 30.6 °C 7.1 °C 1017.8 hPa SSW 27.8 km/h 27.8 km/h 23 % 0.0 mm
16:54 30.7 °C 7.2 °C 1017.8 hPa South 25.9 km/h 25.9 km/h 23 % 0.0 mm
16:59 31.1 °C 8.2 °C 1016.8 hPa WSW 22.0 km/h 22.0 km/h 24 % 0.0 mm
17:04 31.1 °C 8.2 °C 1016.8 hPa SE 13.0 km/h 13.0 km/h 24 % 0.0 mm
17:09 31.2 °C 8.2 °C 1016.8 hPa SW 18.5 km/h 18.5 km/h 24 % 0.0 mm
17:14 31.4 °C 8.4 °C 1017.8 hPa SW 11.4 km/h 11.4 km/h 24 % 0.0 mm
17:19 31.0 °C 8.1 °C 1017.8 hPa West 20.4 km/h 20.4 km/h 24 % 0.0 mm
17:24 31.1 °C 8.2 °C 1017.8 hPa SW 16.7 km/h 16.7 km/h 24 % 0.0 mm
17:29 31.0 °C 8.1 °C 1017.8 hPa SW 13.0 km/h 13.0 km/h 24 % 0.0 mm
17:34 30.7 °C 7.8 °C 1017.8 hPa SW 18.3 km/h 18.3 km/h 24 % 0.0 mm
17:39 30.6 °C 8.3 °C 1017.8 hPa SW 18.5 km/h 18.5 km/h 25 % 0.0 mm
17:44 30.7 °C 8.4 °C 1017.8 hPa SSW 14.5 km/h 14.5 km/h 25 % 0.0 mm
17:49 30.6 °C 8.3 °C 1017.8 hPa WSW 13.0 km/h 13.0 km/h 25 % 0.0 mm
17:54 30.3 °C 8.1 °C 1017.8 hPa SW 14.8 km/h 14.8 km/h 25 % 0.0 mm
17:59 30.6 °C 8.3 °C 1016.8 hPa SSW 17.2 km/h 17.2 km/h 25 % 0.0 mm
18:04 30.2 °C 8.6 °C 1016.8 hPa WSW 22.2 km/h 22.2 km/h 26 % 0.0 mm
18:09 30.3 °C 8.7 °C 1016.8 hPa SW 16.7 km/h 16.7 km/h 26 % 0.0 mm
18:14 30.0 °C 8.4 °C 1016.8 hPa SW 24.1 km/h 24.1 km/h 26 % 0.0 mm
18:19 30.2 °C 8.6 °C 1016.8 hPa SSW 7.9 km/h 10.3 km/h 26 % 0.0 mm
18:24 30.1 °C 8.5 °C 1016.8 hPa WSW 14.8 km/h 14.8 km/h 26 % 0.0 mm
18:29 29.8 °C 8.2 °C 1016.8 hPa SW 14.8 km/h 14.8 km/h 26 % 0.0 mm
18:34 29.7 °C 8.7 °C 1016.8 hPa WSW 18.5 km/h 18.5 km/h 27 % 0.0 mm
18:39 29.5 °C 8.0 °C 1016.8 hPa SW 16.7 km/h 16.7 km/h 26 % 0.0 mm
18:44 29.4 °C 7.9 °C 1017.8 hPa SW 14.8 km/h 14.8 km/h 26 % 0.0 mm
18:49 29.3 °C 7.8 °C 1017.8 hPa South 13.0 km/h 13.0 km/h 26 % 0.0 mm
18:54 29.3 °C 7.8 °C 1017.8 hPa WSW 11.9 km/h 11.9 km/h 26 % 0.0 mm
18:59 29.2 °C 7.7 °C 1017.8 hPa SSW 6.1 km/h 7.2 km/h 26 % 0.0 mm
19:04 29.1 °C 7.6 °C 1017.8 hPa SW 13.7 km/h 13.7 km/h 26 % 0.0 mm
19:09 28.8 °C 7.9 °C 1017.8 hPa South 10.0 km/h 10.8 km/h 27 % 0.0 mm
19:14 28.6 °C 7.8 °C 1016.8 hPa South 10.0 km/h 10.8 km/h 27 % 0.0 mm
19:15 21.2 °C 5.9 °C 1018.8 hPa SW 9.7 km/h 9.7 km/h 37 % 0.0 mm
19:19 28.4 °C 7.1 °C 1016.8 hPa SSW 15.6 km/h 15.6 km/h 26 % 0.0 mm
19:24 28.3 °C 6.9 °C 1016.8 hPa WSW 13.0 km/h 13.0 km/h 26 % 0.0 mm
19:25 21.1 °C 6.2 °C 1018.8 hPa SW 9.7 km/h 9.7 km/h 38 % 0.0 mm
19:29 28.2 °C 6.3 °C 1016.8 hPa WSW 10.0 km/h 11.9 km/h 25 % 0.0 mm
19:34 28.2 °C 5.7 °C 1016.8 hPa West 19.5 km/h 19.5 km/h 24 % 0.0 mm
19:35 21.0 °C 6.1 °C 1018.8 hPa SW 9.7 km/h 9.7 km/h 38 % 0.0 mm
19:45 27.9 °C 5.4 °C 1017.8 hPa West 11.3 km/h 19.3 km/h 24 % 0.0 mm
19:50 27.8 °C 5.9 °C 1017.8 hPa SSW 13.0 km/h 13.0 km/h 25 % 0.0 mm
19:55 27.7 °C 5.9 °C 1017.8 hPa SSW 13.0 km/h 13.0 km/h 25 % 0.0 mm
20:00 27.6 °C 5.8 °C 1016.8 hPa SSW 13.0 km/h 13.0 km/h 25 % 0.0 mm
20:05 27.5 °C 5.1 °C 1016.8 hPa SW 5.6 km/h 7.9 km/h 24 % 0.0 mm
20:10 27.3 °C 4.9 °C 1016.8 hPa SW 5.6 km/h 7.9 km/h 24 % 0.0 mm
20:15 27.2 °C 4.9 °C 1017.8 hPa SW 5.6 km/h 7.9 km/h 24 % 0.0 mm
20:20 27.0 °C 5.3 °C 1017.8 hPa SW 8.0 km/h 8.0 km/h 25 % 0.0 mm
20:25 26.9 °C 5.8 °C 1017.8 hPa SW 5.6 km/h 7.9 km/h 26 % 0.0 mm
20:30 26.8 °C 5.7 °C 1017.8 hPa SW 5.6 km/h 7.9 km/h 26 % 0.0 mm
20:35 26.6 °C 5.5 °C 1017.8 hPa SW 5.6 km/h 7.9 km/h 26 % 0.0 mm
20:40 26.5 °C 5.4 °C 1017.8 hPa SW 5.6 km/h 7.9 km/h 26 % 0.0 mm
20:45 26.4 °C 5.3 °C 1017.8 hPa SW 5.6 km/h 7.9 km/h 26 % 0.0 mm
20:50 26.1 °C 5.1 °C 1017.8 hPa SW 5.6 km/h 7.9 km/h 26 % 0.0 mm
20:55 26.0 °C 5.0 °C 1017.8 hPa SW 5.6 km/h 7.9 km/h 26 % 0.0 mm
21:00 25.8 °C 4.8 °C 1017.8 hPa SW 8.0 km/h 8.0 km/h 26 % 0.0 mm
21:05 25.7 °C 5.3 °C 1017.8 hPa SW 8.0 km/h 8.0 km/h 27 % 0.0 mm
21:10 25.4 °C 5.1 °C 1017.8 hPa SW 8.0 km/h 8.0 km/h 27 % 0.0 mm
21:15 25.3 °C 4.9 °C 1017.8 hPa SW 8.0 km/h 8.0 km/h 27 % 0.0 mm
21:20 25.2 °C 4.8 °C 1017.8 hPa SW 8.0 km/h 8.0 km/h 27 % 0.0 mm
21:25 25.0 °C 4.7 °C 1017.8 hPa SW 8.0 km/h 8.0 km/h 27 % 0.0 mm
21:30 24.9 °C 5.1 °C 1017.8 hPa SW 8.0 km/h 8.0 km/h 28 % 0.0 mm
21:35 24.8 °C 5.0 °C 1017.8 hPa SW 8.0 km/h 8.0 km/h 28 % 0.0 mm
21:40 24.6 °C 4.9 °C 1017.8 hPa SW 8.0 km/h 8.0 km/h 28 % 0.0 mm
21:45 24.4 °C 5.2 °C 1017.8 hPa SW 8.0 km/h 8.0 km/h 29 % 0.0 mm
21:50 24.3 °C 5.1 °C 1017.8 hPa SW 8.0 km/h 8.0 km/h 29 % 0.0 mm
21:55 24.2 °C 5.1 °C 1017.8 hPa SW 8.0 km/h 8.0 km/h 29 % 0.0 mm
22:00 24.1 °C 4.9 °C 1017.8 hPa SW 5.6 km/h 7.9 km/h 29 % 0.0 mm
22:05 24.0 °C 4.8 °C 1017.8 hPa SW 5.6 km/h 7.9 km/h 29 % 0.0 mm
22:10 23.8 °C 5.2 °C 1017.8 hPa SW 5.6 km/h 7.9 km/h 30 % 0.0 mm
22:15 23.7 °C 5.1 °C 1018.8 hPa SW 5.6 km/h 7.9 km/h 30 % 0.0 mm
22:20 23.6 °C 5.0 °C 1018.8 hPa SW 5.6 km/h 7.9 km/h 30 % 0.0 mm
22:25 23.5 °C 4.9 °C 1018.8 hPa SW 5.6 km/h 7.9 km/h 30 % 0.0 mm
22:30 23.4 °C 5.3 °C 1018.8 hPa SW 5.6 km/h 7.9 km/h 31 % 0.0 mm
22:35 23.2 °C 5.1 °C 1018.8 hPa SW 5.6 km/h 7.9 km/h 31 % 0.0 mm
22:40 23.1 °C 5.1 °C 1018.8 hPa SW 5.6 km/h 7.9 km/h 31 % 0.0 mm
22:45 23.0 °C 4.9 °C 1018.8 hPa SW 5.6 km/h 7.9 km/h 31 % 0.0 mm
22:50 22.9 °C 5.8 °C 1018.8 hPa SW 5.6 km/h 7.9 km/h 33 % 0.0 mm
22:55 22.8 °C 5.7 °C 1018.8 hPa SW 5.6 km/h 7.9 km/h 33 % 0.0 mm
23:00 22.7 °C 5.6 °C 1019.9 hPa SW 5.6 km/h 7.9 km/h 33 % 0.0 mm
23:05 22.6 °C 5.5 °C 1019.9 hPa SW 5.6 km/h 7.9 km/h 33 % 0.0 mm
23:10 22.5 °C 5.8 °C 1019.9 hPa SW 5.6 km/h 7.9 km/h 34 % 0.0 mm
23:15 22.4 °C 5.8 °C 1018.8 hPa SW 5.6 km/h 7.9 km/h 34 % 0.0 mm
23:20 22.3 °C 5.7 °C 1018.8 hPa SW 5.6 km/h 7.9 km/h 34 % 0.0 mm
23:25 22.2 °C 5.6 °C 1018.8 hPa SW 5.6 km/h 7.9 km/h 34 % 0.0 mm
23:30 22.1 °C 5.9 °C 1019.9 hPa SW 5.6 km/h 7.9 km/h 35 % 0.0 mm
23:35 22.0 °C 5.8 °C 1019.9 hPa SW 5.6 km/h 7.9 km/h 35 % 0.0 mm
23:40 21.9 °C 5.7 °C 1019.9 hPa SW 5.6 km/h 7.9 km/h 35 % 0.0 mm
23:45 21.8 °C 5.7 °C 1018.8 hPa SW 5.6 km/h 7.9 km/h 35 % 0.0 mm
23:50 21.7 °C 5.9 °C 1018.8 hPa SW 5.6 km/h 7.9 km/h 36 % 0.0 mm
23:55 21.6 °C 5.9 °C 1018.8 hPa SW 5.6 km/h 7.9 km/h 36 % 0.0 mm
Meteo Sesrovires
Elogis d' Weather Underground - 3.5 mb

Guio original per  Jim McMurry - jmcmurry@mwt.net Adaptat per a la plantilla per  Wim van der Kuil - Leuven-Template.eu

Trobareu la nostra informacio del temps tambe a:

Weather Underground

AWEKAS